Time;durP1;ratioP1;P1;durP2;ratioP2;P2;SDS_P1;SDS_P2;PMS_P1;PMS_P2;Temp;Humidity;BMP_temperature;BMP_pressure;BME280_temperature;BME280_humidity;BME280_pressure;Samples;Min_cycle;Max_cycle;Signal;HPM_P1;HPM_P2
2021/12/24 00:01:37;;;;;;;65.10;49.20;;;;;;;-0.82;78.72;98893.48;107402;1298;24482;-77
2021/12/24 00:04:21;;;;;;;61.20;50.80;;;;;;;-0.77;79.04;98891.44;107518;1292;22631;-77
2021/12/24 00:06:53;;;;;;;66.40;52.70;;;;;;;-0.72;78.98;98886.15;107690;1292;23743;-77
2021/12/24 00:09:32;;;;;;;62.90;49.60;;;;;;;-0.68;78.99;98876.70;107672;1292;23750;-77
2021/12/24 00:12:13;;;;;;;57.70;47.70;;;;;;;-0.70;78.83;98870.42;107588;1292;23771;-77
2021/12/24 00:14:48;;;;;;;59.50;51.30;;;;;;;-0.72;78.78;98864.74;107626;1292;23637;-78
2021/12/24 00:17:28;;;;;;;59.10;48.70;;;;;;;-0.70;79.04;98859.89;107977;1288;23701;-78
2021/12/24 00:20:20;;;;;;;58.70;47.30;;;;;;;-0.66;79.12;98851.64;108305;1281;23586;-77
2021/12/24 00:37:20;;;;;;;47.50;41.40;;;;;;;-0.29;79.76;98829.75;108133;1285;267684;-79
2021/12/24 00:40:07;;;;;;;48.30;42.60;;;;;;;-0.23;79.82;98825.73;108097;1285;22477;-78
2021/12/24 00:42:53;;;;;;;;;;;;;;;;;;;;;
2021/12/24 00:45:34;;;;;;;52.80;46.40;;;;;;;-0.10;79.78;98831.65;108219;1290;23051;-79
2021/12/24 00:48:18;;;;;;;55.40;48.90;;;;;;;-0.06;79.75;98830.55;108009;1290;22997;-79
2021/12/24 00:51:06;;;;;;;52.20;46.50;;;;;;;-0.01;79.68;98825.63;108187;1284;23795;-79
2021/12/24 00:56:18;;;;;;;54.40;48.40;;;;;;;0.06;79.87;98821.02;108309;1285;22106;-79
2021/12/24 00:59:11;;;;;;;50.60;45.20;;;;;;;0.11;79.76;98818.71;108438;1284;22407;-78
2021/12/24 01:01:41;;;;;;;49.10;43.80;;;;;;;0.15;79.93;98811.08;108431;1285;22216;-78
2021/12/24 01:04:10;;;;;;;54.80;48.60;;;;;;;0.21;79.86;98802.51;108519;1283;22001;-78
2021/12/24 01:06:41;;;;;;;52.70;47.30;;;;;;;0.27;79.93;98799.27;108561;1285;22001;-78
2021/12/24 01:09:11;;;;;;;53.10;47.50;;;;;;;0.30;79.81;98804.55;107943;1291;22638;-78
2021/12/24 01:11:45;;;;;;;48.90;43.80;;;;;;;0.33;79.86;98800.10;107901;1291;24401;-77
2021/12/24 01:14:15;;;;;;;49.40;44.00;;;;;;;0.33;79.78;98796.61;107930;1291;23086;-77
2021/12/24 01:17:16;;;;;;;47.10;42.20;;;;;;;0.36;79.97;98794.77;108017;1290;24969;-78
2021/12/24 01:19:49;;;;;;;44.70;40.00;;;;;;;0.39;79.95;98790.01;107791;1291;21992;-77
2021/12/24 01:25:25;;;;;;;43.30;38.70;;;;;;;0.40;79.92;98779.31;107906;1291;23592;-78
2021/12/24 01:44:27;;;;;;;45.10;40.40;;;;;;;0.55;80.22;98767.22;108503;1281;23123;-80
2021/12/24 01:47:09;;;;;;;43.10;38.50;;;;;;;0.57;80.21;98763.55;108591;1280;22087;-79
2021/12/24 01:49:42;;;;;;;44.50;39.80;;;;;;;0.60;80.33;98765.02;108133;1288;24371;-79
2021/12/24 01:52:15;;;;;;;44.10;39.30;;;;;;;0.65;80.33;98764.89;108184;1286;23605;-78
2021/12/24 01:54:52;;;;;;;44.50;39.40;;;;;;;0.65;80.10;98758.48;108405;1281;23636;-79
2021/12/24 01:57:27;;;;;;;44.30;38.60;;;;;;;0.64;80.12;98752.82;108484;1281;21999;-78
2021/12/24 02:00:07;;;;;;;45.20;40.30;;;;;;;0.64;80.13;98747.95;108539;1281;22017;-78
2021/12/24 02:02:44;;;;;;;53.70;43.60;;;;;;;0.67;80.28;98743.08;108134;1288;21986;-78
2021/12/24 02:05:23;;;;;;;45.20;40.40;;;;;;;0.68;80.30;98738.95;107991;1291;22000;-78
2021/12/24 02:07:54;;;;;;;44.60;40.00;;;;;;;0.68;80.27;98735.13;107752;1290;22027;-78
2021/12/24 02:10:26;;;;;;;44.40;39.60;;;;;;;0.68;80.35;98732.86;107967;1290;23045;-78
2021/12/24 02:12:57;;;;;;;44.00;39.30;;;;;;;0.70;80.34;98735.99;107750;1295;22032;-78
2021/12/24 02:29:44;;;;;;;41.30;37.00;;;;;;;0.84;80.49;98723.45;108312;1285;22075;-77
2021/12/24 02:32:14;;;;;;;44.60;38.00;;;;;;;0.85;80.51;98722.39;108219;1285;23718;-78
2021/12/24 02:34:50;;;;;;;41.90;37.30;;;;;;;0.88;80.45;98718.14;108370;1280;22011;-78
2021/12/24 02:37:32;;;;;;;42.20;37.70;;;;;;;0.89;80.46;98712.69;108215;1282;23956;-78
2021/12/24 02:40:03;;;;;;;42.30;37.90;;;;;;;0.93;80.58;98713.52;108435;1282;23042;-78
2021/12/24 02:42:37;;;;;;;41.00;36.60;;;;;;;0.97;80.53;98706.79;108384;1282;22000;-77
2021/12/24 02:45:07;;;;;;;44.00;39.50;;;;;;;0.99;80.48;98703.62;108279;1288;22022;-77
2021/12/24 02:47:55;;;;;;;43.20;38.50;;;;;;;1.02;80.51;98696.60;108127;1288;22048;-78
2021/12/24 02:56:10;;;;;;;39.00;34.20;;;;;;;1.05;80.53;98700.44;107976;1291;21986;-77
2021/12/24 02:58:42;;;;;;;41.60;37.30;;;;;;;1.06;80.55;98696.69;107777;1292;23790;-76
2021/12/24 03:01:38;;;;;;;38.50;34.40;;;;;;;1.09;80.50;98703.01;107900;1291;22039;-77
2021/12/24 03:04:12;;;;;;;37.70;33.70;;;;;;;1.09;80.45;98709.09;107802;1291;22034;-77
2021/12/24 03:06:49;;;;;;;36.80;33.00;;;;;;;1.09;80.56;98711.33;107712;1291;22109;-77
2021/12/24 03:09:23;;;;;;;44.80;38.80;;;;;;;1.09;80.41;98694.46;107515;1291;22034;-77
2021/12/24 03:11:58;;;;;;;41.10;36.60;;;;;;;1.10;80.60;98691.48;108017;1287;22023;-78
2021/12/24 03:14:29;;;;;;;42.60;38.10;;;;;;;1.12;80.61;98693.89;108323;1283;22990;-78
2021/12/24 03:17:01;;;;;;;35.10;31.50;;;;;;;1.10;80.48;98688.82;108367;1285;23051;-79
2021/12/24 03:19:33;;;;;;;38.80;34.60;;;;;;;1.12;80.65;98687.83;108700;1282;22018;-78
2021/12/24 03:24:56;;;;;;;35.20;31.60;;;;;;;1.12;80.52;98677.86;108054;1291;23661;-78
2021/12/24 03:27:26;;;;;;;33.40;29.90;;;;;;;1.13;80.61;98676.59;107918;1285;22250;-76
2021/12/24 03:29:58;;;;;;;34.90;31.20;;;;;;;1.14;80.48;98676.11;108291;1285;22113;-77
2021/12/24 03:32:28;;;;;;;32.60;29.00;;;;;;;1.17;80.65;98676.42;108264;1282;22063;-77
2021/12/24 03:34:58;;;;;;;30.90;27.80;;;;;;;1.17;80.53;98667.50;108447;1284;21987;-77
2021/12/24 03:37:30;;;;;;;33.40;29.90;;;;;;;1.17;80.53;98667.73;108259;1284;22823;-78
2021/12/24 03:40:17;;;;;;;32.60;29.40;;;;;;;1.17;80.59;98666.52;108362;1280;22004;-77
2021/12/24 03:42:49;;;;;;;32.40;29.10;;;;;;;1.15;80.47;98664.78;108617;1278;21996;-77
2021/12/24 03:45:30;;;;;;;32.30;29.10;;;;;;;1.16;80.56;98657.95;108702;1278;21989;-78
2021/12/24 03:48:13;;;;;;;32.70;29.40;;;;;;;1.16;80.49;98656.36;108957;1275;21982;-78
2021/12/24 03:51:06;;;;;;;31.50;28.20;;;;;;;1.16;80.56;98660.23;108709;1275;21973;-78
2021/12/24 03:56:31;;;;;;;47.60;42.60;;;;;;;1.14;80.59;98661.25;108930;1275;21990;-78
2021/12/24 03:59:08;;;;;;;43.00;38.60;;;;;;;1.14;80.69;98659.10;108763;1275;24919;-78
2021/12/24 04:02:10;;;;;;;39.80;35.50;;;;;;;1.12;80.49;98653.95;108524;1282;23695;-77
2021/12/24 04:05:07;;;;;;;34.60;31.10;;;;;;;1.12;80.55;98647.55;108443;1282;22026;-77
2021/12/24 04:08:18;;;;;;;34.40;30.70;;;;;;;1.12;80.66;98650.38;108226;1288;22778;-78
2021/12/24 04:11:14;;;;;;;35.10;31.40;;;;;;;1.12;80.67;98648.10;108147;1288;22018;-78
2021/12/24 04:13:47;;;;;;;32.60;29.30;;;;;;;1.14;80.81;98652.55;107591;1294;22236;-78
2021/12/24 04:16:20;;;;;;;32.80;29.40;;;;;;;1.17;80.72;98649.51;107709;1291;23054;-78
2021/12/24 04:19:22;;;;;;;31.70;28.50;;;;;;;1.21;80.74;98653.12;107709;1294;22007;-78
2021/12/24 04:24:53;;;;;;;30.00;26.90;;;;;;;1.22;80.74;98651.85;108048;1294;22003;-84
2021/12/24 04:27:30;;;;;;;29.80;26.40;;;;;;;1.22;80.75;98655.23;107909;1295;22009;-83
2021/12/24 04:30:18;;;;;;;31.10;27.80;;;;;;;1.24;80.85;98651.74;107934;1294;22071;-83
2021/12/24 04:33:10;;;;;;;28.90;25.90;;;;;;;1.28;80.93;98651.23;108322;1288;23155;-83
2021/12/24 04:36:07;;;;;;;31.10;27.70;;;;;;;1.32;81.01;98644.88;108364;1288;22055;-83
2021/12/24 05:01:16;;;;;;;30.20;26.90;;;;;;;1.30;80.69;98632.61;108534;1287;22079;-83
2021/12/24 05:04:02;;;;;;;32.20;28.80;;;;;;;1.28;80.75;98644.23;107350;1298;23711;-82
2021/12/24 05:06:37;;;;;;;32.20;28.50;;;;;;;1.29;80.80;98645.09;107623;1293;22023;-82
2021/12/24 05:09:12;;;;;;;31.30;27.90;;;;;;;1.27;80.75;98647.55;107969;1291;23853;-82
2021/12/24 05:11:46;;;;;;;34.20;30.80;;;;;;;1.28;80.80;98646.54;108340;1289;22100;-83
2021/12/24 05:14:34;;;;;;;33.90;30.00;;;;;;;1.28;80.70;98639.46;108136;1289;22232;-82
2021/12/24 05:17:33;;;;;;;34.40;31.00;;;;;;;1.28;80.80;98637.51;108063;1291;21992;-83
2021/12/24 05:23:27;;;;;;;33.90;30.40;;;;;;;1.27;80.74;98654.77;108689;1281;22053;-82
2021/12/24 05:25:58;;;;;;;36.60;32.80;;;;;;;1.28;80.77;98638.54;108637;1282;22009;-82
2021/12/24 05:28:28;;;;;;;34.80;31.00;;;;;;;1.30;80.85;98637.10;108750;1282;21982;-82
2021/12/24 05:31:03;;;;;;;35.60;31.80;;;;;;;1.32;80.77;98645.90;108405;1285;22319;-82
2021/12/24 05:33:42;;;;;;;36.80;32.60;;;;;;;1.30;80.55;98651.18;108853;1278;21973;-83
2021/12/24 05:36:13;;;;;;;33.90;30.40;;;;;;;1.28;80.59;98651.55;108851;1278;22002;-82
2021/12/24 05:38:43;;;;;;;38.80;34.90;;;;;;;1.28;80.66;98637.34;108779;1277;22001;-82
2021/12/24 05:41:15;;;;;;;60.30;48.10;;;;;;;1.29;80.72;98635.02;108452;1286;22756;-82
2021/12/24 05:43:59;;;;;;;41.00;36.70;;;;;;;1.29;80.79;98624.92;108587;1285;22051;-82
2021/12/24 05:46:30;;;;;;;41.70;36.10;;;;;;;1.31;80.96;98616.07;108463;1286;21999;-83
2021/12/24 05:49:34;;;;;;;48.30;42.60;;;;;;;1.31;80.85;98624.17;108655;1281;21991;-83
2021/12/24 05:52:27;;;;;;;;;;;;;;;1.33;80.95;98630.13;108759;1282;21964;-83
2021/12/24 05:55:28;;;;;;;44.00;39.20;;;;;;;1.27;81.04;98623.39;108680;1281;22268;-82
2021/12/24 05:58:10;;;;;;;34.50;31.00;;;;;;;1.27;80.97;98619.20;108763;1282;24012;-84
2021/12/24 06:00:47;;;;;;;39.30;35.30;;;;;;;1.30;80.97;98620.64;109141;1275;23595;-82
2021/12/24 06:03:24;;;;;;;36.10;32.30;;;;;;;1.32;80.89;98619.40;108751;1282;22987;-80
2021/12/24 06:05:54;;;;;;;45.00;36.00;;;;;;;1.33;80.91;98624.68;108749;1283;23075;-79
2021/12/24 06:08:26;;;;;;;47.90;39.60;;;;;;;1.36;81.01;98623.05;108529;1280;23081;-79
2021/12/24 06:10:56;;;;;;;51.00;43.30;;;;;;;1.38;80.97;98619.18;108536;1281;22008;-79
2021/12/24 06:13:28;;;;;;;42.50;37.40;;;;;;;1.38;80.93;98621.39;108262;1284;24252;-79
2021/12/24 06:16:00;;;;;;;44.40;36.80;;;;;;;1.40;80.96;98615.29;108508;1281;24417;-78
2021/12/24 06:18:39;;;;;;;42.90;36.70;;;;;;;1.42;81.01;98614.09;108780;1280;22408;-83
2021/12/24 06:21:21;;;;;;;39.50;34.50;;;;;;;1.46;81.04;98613.44;108910;1275;22843;-82
2021/12/24 06:24:02;;;;;;;38.40;34.30;;;;;;;1.47;81.01;98614.46;109375;1275;23692;-84
2021/12/24 06:26:44;;;;;;;33.90;30.20;;;;;;;1.51;81.14;98615.45;109202;1275;23257;-84
2021/12/24 06:29:22;;;;;;;36.20;30.70;;;;;;;1.54;81.04;98612.27;109249;1275;23062;-83
2021/12/24 06:31:53;;;;;;;33.90;29.50;;;;;;;1.56;81.11;98614.95;109279;1275;23657;-84
2021/12/24 06:34:34;;;;;;;30.40;27.40;;;;;;;1.61;81.15;98608.08;108801;1282;22041;-84
2021/12/24 06:37:05;;;;;;;35.60;31.90;;;;;;;1.63;80.98;98610.30;108821;1281;23728;-83
2021/12/24 06:39:36;;;;;;;42.30;37.90;;;;;;;1.64;81.05;98604.55;108788;1279;22005;-83
2021/12/24 06:42:08;;;;;;;42.20;37.70;;;;;;;1.65;80.86;98601.37;108780;1282;23042;-83
2021/12/24 06:44:39;;;;;;;38.30;34.40;;;;;;;1.67;80.95;98598.42;108793;1282;23323;-83
2021/12/24 06:47:17;;;;;;;32.30;28.90;;;;;;;1.69;80.89;98596.31;108834;1282;22813;-83
2021/12/24 06:49:54;;;;;;;36.50;32.70;;;;;;;1.70;80.88;98600.55;108403;1289;22365;-83
2021/12/24 06:52:36;;;;;;;;;;;;;;;;;;;;;
2021/12/24 06:55:10;;;;;;;33.30;29.40;;;;;;;1.74;80.91;98605.52;108517;1285;22766;-83
2021/12/24 06:57:49;;;;;;;35.20;31.40;;;;;;;1.75;80.91;98609.91;108112;1292;23611;-84
2021/12/24 07:00:24;;;;;;;34.20;30.70;;;;;;;1.78;80.96;98612.41;108198;1290;23150;-79
2021/12/24 07:02:57;;;;;;;35.60;31.80;;;;;;;1.79;80.81;98617.17;107652;1295;23628;-80
2021/12/24 07:05:29;;;;;;;34.70;31.00;;;;;;;1.79;80.83;98617.20;107710;1295;23058;-80
2021/12/24 07:07:59;;;;;;;34.30;30.70;;;;;;;1.78;80.82;98611.48;107868;1291;22127;-79
2021/12/24 07:10:32;;;;;;;35.60;31.90;;;;;;;1.79;80.85;98616.33;107813;1291;23605;-79
2021/12/24 07:13:02;;;;;;;35.20;31.40;;;;;;;1.79;80.75;98621.30;107975;1291;23048;-79
2021/12/24 07:15:34;;;;;;;35.50;31.80;;;;;;;1.78;80.70;98628.05;108102;1291;22006;-79
2021/12/24 07:18:04;;;;;;;46.20;34.70;;;;;;;1.75;80.62;98622.58;108320;1285;23080;-78
2021/12/24 07:20:33;;;;;;;35.90;32.40;;;;;;;1.73;80.61;98620.52;108231;1285;23698;-79
2021/12/24 07:23:05;;;;;;;36.30;32.50;;;;;;;1.73;80.76;98621.78;108200;1284;23930;-80
2021/12/24 07:25:35;;;;;;;35.30;31.40;;;;;;;1.73;80.74;98623.02;108760;1281;21979;-79
2021/12/24 07:28:13;;;;;;;39.90;35.50;;;;;;;1.72;80.74;98628.12;108349;1282;23836;-79
2021/12/24 07:30:45;;;;;;;36.80;33.00;;;;;;;1.72;80.82;98629.71;108384;1282;22000;-79
2021/12/24 07:33:16;;;;;;;36.90;33.20;;;;;;;1.74;80.87;98635.09;107957;1288;23733;-81
2021/12/24 07:35:48;;;;;;;34.40;30.80;;;;;;;1.76;80.97;98637.16;108306;1288;22537;-79
2021/12/24 07:38:19;;;;;;;33.10;29.80;;;;;;;1.78;81.01;98639.68;107786;1291;22502;-79
2021/12/24 07:40:49;;;;;;;32.50;29.00;;;;;;;1.80;80.94;98638.79;107690;1291;22024;-81
2021/12/24 07:43:19;;;;;;;32.40;29.10;;;;;;;1.81;80.95;98638.85;107862;1291;22688;-80
2021/12/24 07:45:50;;;;;;;33.70;30.30;;;;;;;1.81;80.81;98636.77;107693;1294;21998;-79
2021/12/24 07:48:27;;;;;;;41.50;36.50;;;;;;;1.81;80.89;98631.05;107864;1293;22987;-79
2021/12/24 07:53:30;;;;;;;47.50;42.60;;;;;;;1.79;80.70;98615.98;108771;1287;22383;-80
2021/12/24 07:56:03;;;;;;;46.30;41.50;;;;;;;1.79;80.78;98618.54;108591;1283;24518;-80
2021/12/24 07:58:32;;;;;;;47.80;42.60;;;;;;;1.81;80.80;98616.47;108668;1282;21983;-79
2021/12/24 08:01:02;;;;;;;39.50;35.40;;;;;;;1.85;81.05;98614.98;108350;1284;23235;-80
2021/12/24 08:03:32;;;;;;;38.90;34.80;;;;;;;1.91;81.16;98617.20;108659;1275;22065;-79
2021/12/24 08:06:01;;;;;;;41.40;37.20;;;;;;;1.98;81.46;98609.31;108897;1277;21966;-80
2021/12/24 08:08:33;;;;;;;38.70;34.70;;;;;;;2.06;81.42;98611.89;108735;1281;22022;-81
2021/12/24 08:11:02;;;;;;;38.20;34.00;;;;;;;2.13;81.37;98612.18;108870;1282;21992;-79
2021/12/24 08:13:32;;;;;;;36.90;32.90;;;;;;;2.19;81.35;98609.19;108339;1288;23682;-77
2021/12/24 08:16:04;;;;;;;41.00;36.80;;;;;;;2.23;81.17;98598.78;108328;1288;22171;-80
2021/12/24 08:18:39;;;;;;;37.90;33.90;;;;;;;2.22;80.75;98591.42;108466;1287;23592;-79
2021/12/24 08:21:10;;;;;;;40.90;36.50;;;;;;;2.22;80.78;98597.52;108369;1284;22920;-79
2021/12/24 08:23:39;;;;;;;62.30;53.30;;;;;;;2.24;80.75;98603.58;108066;1288;24086;-80
2021/12/24 08:26:10;;;;;;;67.20;56.50;;;;;;;2.25;80.62;98595.16;108435;1283;22052;-81
2021/12/24 08:28:41;;;;;;;68.50;59.50;;;;;;;2.25;80.50;98594.11;108518;1284;22008;-79
2021/12/24 08:31:11;;;;;;;74.30;66.10;;;;;;;2.26;80.40;98593.48;108350;1281;23683;-78
2021/12/24 08:33:42;;;;;;;47.40;42.50;;;;;;;2.26;80.36;98594.89;108618;1281;21954;-79
2021/12/24 08:36:12;;;;;;;48.90;43.60;;;;;;;2.26;80.28;98599.59;108290;1279;486133;-78
2021/12/24 08:38:45;;;;;;;61.10;49.00;;;;;;;2.27;80.34;98597.52;108628;1280;21996;-79
2021/12/24 08:41:15;;;;;;;63.40;52.60;;;;;;;2.29;80.36;98589.16;108434;1281;21989;-79
2021/12/24 08:47:01;;;;;;;70.70;59.80;;;;;;;2.30;80.11;98587.63;108662;1285;24305;-78
2021/12/24 08:49:32;;;;;;;76.90;63.00;;;;;;;2.31;80.29;98580.08;108650;1278;22024;-85
2021/12/24 08:52:12;;;;;;;78.20;65.40;;;;;;;2.34;80.35;98582.73;108692;1278;22014;-80
2021/12/24 08:54:42;;;;;;;84.50;64.70;;;;;;;2.38;80.34;98582.83;108174;1288;23122;-80
2021/12/24 08:57:11;;;;;;;66.50;58.20;;;;;;;2.39;80.19;98581.54;108302;1285;22008;-80
2021/12/24 08:59:42;;;;;;;70.50;58.90;;;;;;;2.39;80.10;98575.50;107901;1291;21995;-80
2021/12/24 09:02:19;;;;;;;80.70;66.40;;;;;;;2.39;80.02;98570.66;107538;1298;23698;-80
2021/12/24 09:04:55;;;;;;;80.10;68.50;;;;;;;2.40;80.24;98568.27;107437;1294;22221;-79
2021/12/24 09:07:35;;;;;;;89.10;78.10;;;;;;;2.42;80.21;98571.21;107729;1292;23096;-78
2021/12/24 09:10:07;;;;;;;86.90;77.50;;;;;;;2.45;80.37;98568.58;107965;1292;22470;-79
2021/12/24 09:12:39;;;;;;;;;;;;;;;2.51;80.53;98563.78;107911;1289;22900;-80
2021/12/24 09:15:17;;;;;;;57.90;51.50;;;;;;;2.47;80.61;98554.84;107958;1290;21969;-81
2021/12/24 09:17:49;;;;;;;49.90;43.90;;;;;;;2.52;80.69;98555.38;108005;1286;22023;-79
2021/12/24 09:20:27;;;;;;;56.10;44.90;;;;;;;2.57;80.70;98561.73;108217;1282;22688;-78
2021/12/24 09:23:02;;;;;;;56.10;46.20;;;;;;;2.61;80.58;98559.95;108554;1281;21988;-80
2021/12/24 09:25:32;;;;;;;61.00;53.00;;;;;;;2.65;80.52;98564.81;108616;1281;21992;-79
2021/12/24 09:28:03;;;;;;;64.10;54.10;;;;;;;2.67;80.58;98564.42;108515;1280;21989;-79
2021/12/24 09:30:34;;;;;;;62.30;49.60;;;;;;;2.76;81.02;98559.03;108571;1280;22037;-79
2021/12/24 09:33:05;;;;;;;51.60;45.00;;;;;;;2.86;81.18;98555.05;108563;1280;23670;-79
2021/12/24 09:35:35;;;;;;;55.90;47.20;;;;;;;2.94;81.16;98557.98;108778;1281;23576;-78
2021/12/24 09:38:09;;;;;;;63.60;51.30;;;;;;;2.99;80.74;98548.69;108473;1281;23689;-80
2021/12/24 09:40:52;;;;;;;86.30;77.60;;;;;;;2.97;80.32;98546.02;108980;1275;22985;-78
2021/12/24 09:43:25;;;;;;;85.40;76.60;;;;;;;2.96;80.04;98541.17;109042;1275;23844;-78
2021/12/24 09:45:56;;;;;;;83.80;75.20;;;;;;;2.96;80.01;98540.61;108977;1275;21986;-78
2021/12/24 09:48:27;;;;;;;84.00;75.00;;;;;;;2.96;79.88;98538.08;108863;1275;21961;-79
2021/12/24 09:50:58;;;;;;;101.20;91.00;;;;;;;2.93;79.77;98535.59;108767;1275;23595;-78
2021/12/24 09:53:30;;;;;;;89.10;80.30;;;;;;;2.92;79.93;98525.59;108918;1275;24303;-78
2021/12/24 09:56:00;;;;;;;84.60;75.10;;;;;;;2.96;80.20;98525.29;108678;1280;22026;-78
2021/12/24 09:58:30;;;;;;;97.10;85.10;;;;;;;2.99;79.98;98518.95;108493;1281;23653;-77
2021/12/24 10:01:02;;;;;;;85.60;76.20;;;;;;;2.99;79.92;98514.75;108575;1280;22232;-78
2021/12/24 10:03:37;;;;;;;87.10;76.10;;;;;;;2.97;79.63;98511.33;108217;1285;23611;-78
2021/12/24 10:06:10;;;;;;;94.30;82.40;;;;;;;2.91;79.46;98507.83;108319;1287;22005;-78
2021/12/24 10:08:44;;;;;;;86.30;75.80;;;;;;;2.87;79.69;98502.34;107871;1291;22025;-79
2021/12/24 10:11:16;;;;;;;83.90;74.70;;;;;;;2.90;79.98;98496.05;107880;1292;22069;-78
2021/12/24 10:13:47;;;;;;;95.70;79.10;;;;;;;2.94;80.06;98493.41;108076;1288;22012;-78
2021/12/24 10:16:22;;;;;;;87.50;77.70;;;;;;;2.95;80.01;98488.62;108279;1286;21989;-77
2021/12/24 10:18:55;;;;;;;84.10;74.50;;;;;;;2.99;80.15;98476.10;108189;1288;22044;-80
2021/12/24 10:21:32;;;;;;;77.80;69.30;;;;;;;3.02;80.14;98474.71;108102;1288;22014;-78
2021/12/24 10:24:15;;;;;;;79.00;70.60;;;;;;;3.04;80.19;98473.86;108261;1286;21989;-78
2021/12/24 10:26:46;;;;;;;101.00;90.00;;;;;;;3.06;80.14;98475.55;108397;1281;24462;-78
2021/12/24 10:29:33;;;;;;;83.30;74.20;;;;;;;3.11;80.34;98476.46;108835;1275;23736;-78
2021/12/24 10:32:18;;;;;;;91.00;80.60;;;;;;;3.13;80.34;98472.35;108805;1277;23687;-78
2021/12/24 10:34:48;;;;;;;94.40;84.00;;;;;;;3.15;80.36;98465.29;108626;1277;23126;-79
2021/12/24 10:37:26;;;;;;;156.20;122.20;;;;;;;3.20;80.35;98461.89;108179;1285;22047;-78
2021/12/24 10:40:02;;;;;;;108.40;90.20;;;;;;;3.22;80.45;98458.89;108397;1284;22024;-79
2021/12/24 10:42:35;;;;;;;79.20;70.70;;;;;;;3.26;80.53;98451.67;108363;1284;24341;-78
2021/12/24 10:45:20;;;;;;;78.90;70.10;;;;;;;3.28;80.38;98446.67;108331;1283;23512;-78
2021/12/24 10:47:49;;;;;;;72.00;63.90;;;;;;;3.30;80.27;98447.55;108392;1284;22001;-78
2021/12/24 10:50:32;;;;;;;71.80;63.90;;;;;;;3.29;80.18;98451.78;108173;1284;23592;-78
2021/12/24 10:55:47;;;;;;;85.20;75.20;;;;;;;3.27;80.25;98446.48;108359;1281;22002;-77
2021/12/24 10:58:23;;;;;;;94.60;83.50;;;;;;;3.29;80.40;98444.83;108724;1280;22104;-77
2021/12/24 11:00:59;;;;;;;90.30;80.60;;;;;;;3.33;80.49;98437.65;108503;1280;22090;-78
2021/12/24 11:03:32;;;;;;;84.50;75.40;;;;;;;3.37;80.44;98438.08;108744;1276;22015;-77
2021/12/24 11:06:15;;;;;;;84.00;74.80;;;;;;;3.41;80.51;98423.96;108570;1282;22888;-77
2021/12/24 11:08:58;;;;;;;76.00;67.60;;;;;;;3.42;80.36;98422.29;108890;1275;23549;-79
2021/12/24 11:11:38;;;;;;;80.00;71.60;;;;;;;3.42;80.36;98421.18;108555;1281;22756;-78
2021/12/24 11:14:20;;;;;;;76.90;68.80;;;;;;;3.45;80.43;98418.95;108409;1282;23465;-77
2021/12/24 11:16:49;;;;;;;113.60;101.70;;;;;;;3.46;80.42;98417.58;108488;1282;23058;-78
2021/12/24 11:19:26;;;;;;;78.70;70.70;;;;;;;3.52;80.74;98424.42;108346;1284;22002;-79
2021/12/24 11:22:04;;;;;;;62.10;55.70;;;;;;;3.59;80.87;98431.45;108467;1284;21999;-77
2021/12/24 11:24:34;;;;;;;56.90;51.20;;;;;;;3.63;80.76;98431.54;108383;1284;21995;-78
2021/12/24 11:27:04;;;;;;;53.50;48.10;;;;;;;3.67;80.87;98431.65;108358;1284;22234;-78
2021/12/24 11:29:34;;;;;;;53.40;47.90;;;;;;;3.71;80.84;98430.10;108587;1279;22016;-78
2021/12/24 11:32:04;;;;;;;51.10;45.60;;;;;;;3.73;80.65;98430.93;108594;1279;22021;-78
2021/12/24 11:34:34;;;;;;;54.30;48.70;;;;;;;3.76;80.67;98431.82;108699;1281;23579;-78
2021/12/24 11:37:05;;;;;;;64.30;57.40;;;;;;;3.77;80.54;98426.19;108682;1275;23677;-78
2021/12/24 11:39:35;;;;;;;65.30;58.00;;;;;;;3.80;80.66;98419.77;109081;1275;22002;-79
2021/12/24 11:42:10;;;;;;;72.40;64.10;;;;;;;3.82;80.55;98412.17;109192;1275;22746;-78
2021/12/24 11:44:42;;;;;;;82.90;71.10;;;;;;;3.80;80.24;98408.98;108864;1273;23053;-79
2021/12/24 11:47:18;;;;;;;82.60;70.60;;;;;;;3.77;80.17;98405.27;108917;1274;21972;-79
2021/12/24 11:49:48;;;;;;;80.70;67.20;;;;;;;3.77;80.33;98403.91;108957;1274;21986;-77
2021/12/24 11:52:18;;;;;;;57.60;51.50;;;;;;;3.78;80.48;98402.14;108499;1281;22466;-79
2021/12/24 11:54:48;;;;;;;62.80;55.90;;;;;;;3.79;80.37;98400.70;108780;1279;22039;-79
2021/12/24 11:57:24;;;;;;;66.70;57.60;;;;;;;3.81;80.56;98395.11;108719;1280;21979;-78
2021/12/24 11:59:57;;;;;;;57.30;51.10;;;;;;;3.83;80.41;98398.03;108562;1279;23048;-79
2021/12/24 12:02:45;;;;;;;51.70;46.40;;;;;;;3.82;80.46;98398.27;108341;1284;23705;-79
2021/12/24 12:05:23;;;;;;;54.10;48.40;;;;;;;3.85;80.58;98393.61;108417;1283;23637;-77
2021/12/24 12:08:27;;;;;;;43.70;37.80;;;;;;;3.86;80.61;98387.34;108118;1290;22515;-78
2021/12/24 12:11:02;;;;;;;53.70;47.80;;;;;;;3.87;80.60;98377.52;108166;1288;23751;-78
2021/12/24 12:13:50;;;;;;;53.20;47.40;;;;;;;3.87;80.70;98376.10;108188;1286;22868;-76
2021/12/24 12:16:27;;;;;;;55.80;49.90;;;;;;;3.89;80.84;98376.35;108263;1288;22913;-79
2021/12/24 12:19:44;;;;;;;60.50;54.10;;;;;;;3.92;80.87;98371.55;108182;1288;23707;-78
2021/12/24 12:25:36;;;;;;;70.30;63.10;;;;;;;3.93;80.75;98376.42;108087;1288;21993;-77
2021/12/24 12:28:13;;;;;;;49.30;44.20;;;;;;;3.96;80.77;98371.99;108267;1288;22242;-78
2021/12/24 12:30:53;;;;;;;61.20;54.30;;;;;;;3.97;80.75;98372.06;108114;1288;22828;-78
2021/12/24 12:33:35;;;;;;;54.90;49.10;;;;;;;3.98;80.77;98368.76;108274;1289;21998;-79
2021/12/24 12:36:06;;;;;;;59.40;53.40;;;;;;;4.01;80.91;98368.11;108146;1286;22107;-79
2021/12/24 12:38:43;;;;;;;62.20;55.70;;;;;;;4.02;80.87;98362.97;108060;1288;22117;-80
2021/12/24 12:41:34;;;;;;;69.50;62.20;;;;;;;4.04;81.02;98364.07;107750;1292;23033;-79
2021/12/24 12:44:14;;;;;;;56.70;50.70;;;;;;;4.06;80.96;98351.61;107548;1296;22010;-78
2021/12/24 12:47:14;;;;;;;78.20;70.30;;;;;;;4.05;80.82;98347.48;107272;1298;22183;-77
2021/12/24 12:49:46;;;;;;;64.50;58.10;;;;;;;4.02;80.77;98340.96;107384;1297;22131;-78
2021/12/24 12:52:25;;;;;;;105.00;93.60;;;;;;;4.03;81.07;98342.29;107171;1295;22500;-78
2021/12/24 12:54:56;;;;;;;54.10;48.40;;;;;;;4.06;81.02;98348.30;107727;1294;22434;-78
2021/12/24 12:57:30;;;;;;;55.70;49.70;;;;;;;4.07;80.95;98346.67;107658;1294;23068;-78
2021/12/24 13:00:21;;;;;;;59.70;53.00;;;;;;;4.09;81.16;98347.17;108002;1290;22005;-77
2021/12/24 13:02:56;;;;;;;102.30;79.20;;;;;;;4.11;81.08;98350.52;108355;1285;22144;-78
2021/12/24 13:05:49;;;;;;;93.70;74.00;;;;;;;4.11;81.08;98352.81;108396;1284;22077;-78
2021/12/24 13:08:24;;;;;;;82.10;72.10;;;;;;;4.11;81.13;98362.39;108509;1281;23747;-79
2021/12/24 13:11:07;;;;;;;57.10;49.80;;;;;;;4.10;81.09;98360.77;108842;1274;23708;-78
2021/12/24 13:13:57;;;;;;;53.50;46.20;;;;;;;4.10;81.05;98363.77;108941;1275;21988;-78
2021/12/24 13:16:39;;;;;;;54.10;46.20;;;;;;;4.10;81.19;98361.02;109026;1274;23595;-78
2021/12/24 13:24:54;;;;;;;77.20;59.80;;;;;;;4.15;81.30;98373.48;109147;1274;23029;-78
2021/12/24 13:27:32;;;;;;;79.80;64.60;;;;;;;4.15;81.39;98365.91;109105;1275;23580;-79
2021/12/24 13:30:24;;;;;;;90.40;69.70;;;;;;;4.16;81.24;98361.17;109186;1275;21999;-79
2021/12/24 13:33:09;;;;;;;95.80;73.50;;;;;;;4.15;81.23;98366.47;108507;1281;22013;-78
2021/12/24 13:35:46;;;;;;;89.20;68.80;;;;;;;4.15;81.32;98366.95;108614;1280;22775;-78
2021/12/24 13:38:26;;;;;;;65.70;55.50;;;;;;;4.17;81.41;98365.21;108727;1280;22013;-78
2021/12/24 13:40:57;;;;;;;59.80;46.90;;;;;;;4.18;81.36;98365.03;108595;1278;23583;-78
2021/12/24 13:43:28;;;;;;;61.10;49.20;;;;;;;4.20;81.37;98369.89;108226;1286;22093;-78
2021/12/24 13:46:10;;;;;;;38.60;31.90;;;;;;;4.20;81.41;98364.01;108100;1286;21963;-79
2021/12/24 13:49:40;;;;;;;32.30;28.70;;;;;;;4.20;81.41;98370.97;108151;1286;21997;-78
2021/12/24 13:54:34;;;;;;;29.30;25.60;;;;;;;4.20;81.52;98379.66;108555;1281;22230;-78